sensor_id;sensor_type;location;lat;lon;timestamp;pressure;altitude;pressure_sealevel;temperature;humidity
54850;BME280;47660;51.334;12.396;2022-12-07T00:01:40;100062.00;;;4.79;100.00
54850;BME280;47660;51.334;12.396;2022-12-07T00:04:12;100055.91;;;4.57;100.00
54850;BME280;47660;51.334;12.396;2022-12-07T00:06:42;100052.06;;;4.44;100.00
54850;BME280;47660;51.334;12.396;2022-12-07T00:09:13;100049.25;;;4.69;100.00
54850;BME280;47660;51.334;12.396;2022-12-07T00:11:39;100047.56;;;4.48;100.00
54850;BME280;47660;51.334;12.396;2022-12-07T00:14:07;100045.56;;;4.73;100.00
54850;BME280;47660;51.334;12.396;2022-12-07T00:16:34;100047.66;;;4.65;100.00
54850;BME280;47660;51.334;12.396;2022-12-07T00:19:00;100040.19;;;4.56;100.00
54850;BME280;47660;51.334;12.396;2022-12-07T00:21:30;100043.25;;;4.66;100.00
54850;BME280;47660;51.334;12.396;2022-12-07T00:23:57;100032.78;;;4.64;100.00
54850;BME280;47660;51.334;12.396;2022-12-07T00:26:27;100035.84;;;4.55;100.00
54850;BME280;47660;51.334;12.396;2022-12-07T00:28:55;100036.81;;;4.73;100.00
54850;BME280;47660;51.334;12.396;2022-12-07T00:31:23;100023.69;;;4.71;100.00
54850;BME280;47660;51.334;12.396;2022-12-07T00:33:49;100025.78;;;4.84;100.00
54850;BME280;47660;51.334;12.396;2022-12-07T00:36:17;100030.66;;;4.93;100.00
54850;BME280;47660;51.334;12.396;2022-12-07T00:38:44;100019.38;;;4.89;100.00
54850;BME280;47660;51.334;12.396;2022-12-07T00:41:17;100021.59;;;4.99;100.00
54850;BME280;47660;51.334;12.396;2022-12-07T00:43:44;100020.19;;;4.52;100.00
54850;BME280;47660;51.334;12.396;2022-12-07T00:46:11;100016.91;;;4.46;100.00
54850;BME280;47660;51.334;12.396;2022-12-07T00:48:37;100019.66;;;4.23;100.00
54850;BME280;47660;51.334;12.396;2022-12-07T00:51:04;100013.66;;;4.40;100.00
54850;BME280;47660;51.334;12.396;2022-12-07T00:53:33;100013.69;;;4.19;100.00
54850;BME280;47660;51.334;12.396;2022-12-07T00:56:11;100022.50;;;4.18;100.00
54850;BME280;47660;51.334;12.396;2022-12-07T00:58:37;100020.91;;;4.14;100.00
54850;BME280;47660;51.334;12.396;2022-12-07T01:01:04;100022.66;;;4.13;100.00
54850;BME280;47660;51.334;12.396;2022-12-07T01:03:30;100019.09;;;3.94;100.00
54850;BME280;47660;51.334;12.396;2022-12-07T01:05:58;100019.69;;;4.00;100.00
54850;BME280;47660;51.334;12.396;2022-12-07T01:08:24;100016.78;;;3.64;100.00
54850;BME280;47660;51.334;12.396;2022-12-07T01:11:02;100012.72;;;3.79;100.00
54850;BME280;47660;51.334;12.396;2022-12-07T01:13:28;100009.31;;;3.54;100.00
54850;BME280;47660;51.334;12.396;2022-12-07T01:15:57;100011.16;;;3.73;100.00
54850;BME280;47660;51.334;12.396;2022-12-07T01:18:23;100002.34;;;3.53;100.00
54850;BME280;47660;51.334;12.396;2022-12-07T01:23:30;100006.03;;;3.70;100.00
54850;BME280;47660;51.334;12.396;2022-12-07T01:25:59;100002.13;;;3.80;100.00
54850;BME280;47660;51.334;12.396;2022-12-07T01:28:26;99997.88;;;3.55;100.00
54850;BME280;47660;51.334;12.396;2022-12-07T01:33:30;99990.00;;;3.55;100.00
54850;BME280;47660;51.334;12.396;2022-12-07T01:36:24;99996.44;;;3.47;100.00
54850;BME280;47660;51.334;12.396;2022-12-07T01:38:57;99992.41;;;3.60;100.00
54850;BME280;47660;51.334;12.396;2022-12-07T01:41:26;99987.16;;;3.38;100.00
54850;BME280;47660;51.334;12.396;2022-12-07T01:44:26;99987.97;;;3.62;100.00
54850;BME280;47660;51.334;12.396;2022-12-07T01:46:57;99982.03;;;3.57;100.00
54850;BME280;47660;51.334;12.396;2022-12-07T01:49:42;99984.22;;;3.46;100.00
54850;BME280;47660;51.334;12.396;2022-12-07T01:52:25;99983.28;;;3.69;100.00
54850;BME280;47660;51.334;12.396;2022-12-07T01:55:05;99983.72;;;3.80;100.00
54850;BME280;47660;51.334;12.396;2022-12-07T01:57:32;99980.41;;;3.75;100.00
54850;BME280;47660;51.334;12.396;2022-12-07T02:00:07;99976.09;;;3.74;100.00
54850;BME280;47660;51.334;12.396;2022-12-07T02:02:36;99979.03;;;3.44;100.00
54850;BME280;47660;51.334;12.396;2022-12-07T02:05:05;99977.50;;;3.38;100.00
54850;BME280;47660;51.334;12.396;2022-12-07T02:07:32;99980.13;;;3.38;100.00
54850;BME280;47660;51.334;12.396;2022-12-07T02:10:20;99968.66;;;3.63;100.00
54850;BME280;47660;51.334;12.396;2022-12-07T02:12:50;99956.38;;;3.41;100.00
54850;BME280;47660;51.334;12.396;2022-12-07T02:15:20;99966.47;;;3.30;100.00
54850;BME280;47660;51.334;12.396;2022-12-07T02:18:01;99966.06;;;3.17;100.00
54850;BME280;47660;51.334;12.396;2022-12-07T02:20:41;99965.44;;;3.34;100.00
54850;BME280;47660;51.334;12.396;2022-12-07T02:31:48;99951.19;;;3.40;100.00
54850;BME280;47660;51.334;12.396;2022-12-07T02:37:41;99947.88;;;3.57;100.00
54850;BME280;47660;51.334;12.396;2022-12-07T02:43:07;99943.88;;;3.26;100.00
54850;BME280;47660;51.334;12.396;2022-12-07T02:45:36;99937.69;;;3.27;100.00
54850;BME280;47660;51.334;12.396;2022-12-07T02:48:05;99925.66;;;3.21;100.00
54850;BME280;47660;51.334;12.396;2022-12-07T02:50:32;99921.94;;;3.27;100.00
54850;BME280;47660;51.334;12.396;2022-12-07T02:52:59;99925.59;;;3.66;100.00
54850;BME280;47660;51.334;12.396;2022-12-07T02:55:33;99923.56;;;3.30;100.00
54850;BME280;47660;51.334;12.396;2022-12-07T03:00:48;99916.06;;;3.20;100.00
54850;BME280;47660;51.334;12.396;2022-12-07T03:03:17;99915.53;;;3.55;100.00
54850;BME280;47660;51.334;12.396;2022-12-07T03:08:47;99909.03;;;2.99;100.00
54850;BME280;47660;51.334;12.396;2022-12-07T03:11:29;99910.13;;;3.15;100.00
54850;BME280;47660;51.334;12.396;2022-12-07T03:14:18;99908.19;;;3.20;100.00
54850;BME280;47660;51.334;12.396;2022-12-07T03:16:58;99908.53;;;3.55;100.00
54850;BME280;47660;51.334;12.396;2022-12-07T03:19:27;99909.41;;;3.11;100.00
54850;BME280;47660;51.334;12.396;2022-12-07T03:22:12;99911.56;;;3.02;100.00
54850;BME280;47660;51.334;12.396;2022-12-07T03:24:44;99909.72;;;3.26;100.00
54850;BME280;47660;51.334;12.396;2022-12-07T03:30:05;99905.31;;;3.26;100.00
54850;BME280;47660;51.334;12.396;2022-12-07T03:33:07;99890.84;;;3.16;100.00
54850;BME280;47660;51.334;12.396;2022-12-07T03:40:37;99881.25;;;3.15;100.00
54850;BME280;47660;51.334;12.396;2022-12-07T03:43:05;99880.09;;;3.22;100.00
54850;BME280;47660;51.334;12.396;2022-12-07T03:45:43;99885.38;;;3.43;100.00
54850;BME280;47660;51.334;12.396;2022-12-07T03:48:31;99882.06;;;3.81;100.00
54850;BME280;47660;51.334;12.396;2022-12-07T03:53:54;99878.44;;;3.42;100.00
54850;BME280;47660;51.334;12.396;2022-12-07T03:56:22;99880.47;;;3.35;100.00
54850;BME280;47660;51.334;12.396;2022-12-07T03:58:49;99877.75;;;3.37;100.00
54850;BME280;47660;51.334;12.396;2022-12-07T04:01:17;99873.44;;;3.56;100.00
54850;BME280;47660;51.334;12.396;2022-12-07T04:03:45;99868.31;;;3.53;100.00
54850;BME280;47660;51.334;12.396;2022-12-07T04:06:10;99871.50;;;3.39;100.00
54850;BME280;47660;51.334;12.396;2022-12-07T04:08:36;99871.22;;;3.47;100.00
54850;BME280;47660;51.334;12.396;2022-12-07T04:11:01;99873.38;;;3.58;100.00
54850;BME280;47660;51.334;12.396;2022-12-07T04:13:29;99866.44;;;3.78;100.00
54850;BME280;47660;51.334;12.396;2022-12-07T04:15:54;99864.66;;;3.58;100.00
54850;BME280;47660;51.334;12.396;2022-12-07T04:18:20;99859.41;;;3.58;100.00
54850;BME280;47660;51.334;12.396;2022-12-07T04:20:45;99866.34;;;3.79;100.00
54850;BME280;47660;51.334;12.396;2022-12-07T04:23:11;99852.47;;;3.96;100.00
54850;BME280;47660;51.334;12.396;2022-12-07T04:25:39;99851.63;;;3.96;100.00
54850;BME280;47660;51.334;12.396;2022-12-07T04:28:04;99850.03;;;3.92;100.00
54850;BME280;47660;51.334;12.396;2022-12-07T04:30:30;99846.09;;;3.81;100.00
54850;BME280;47660;51.334;12.396;2022-12-07T04:32:55;99841.91;;;3.56;100.00
54850;BME280;47660;51.334;12.396;2022-12-07T04:35:20;99840.31;;;3.73;100.00
54850;BME280;47660;51.334;12.396;2022-12-07T04:37:46;99837.13;;;3.66;100.00
54850;BME280;47660;51.334;12.396;2022-12-07T04:40:11;99850.50;;;3.39;100.00
54850;BME280;47660;51.334;12.396;2022-12-07T04:42:39;99842.13;;;3.72;100.00
54850;BME280;47660;51.334;12.396;2022-12-07T04:45:05;99840.38;;;3.51;100.00
54850;BME280;47660;51.334;12.396;2022-12-07T04:47:30;99836.50;;;3.80;100.00
54850;BME280;47660;51.334;12.396;2022-12-07T04:49:56;99837.25;;;3.63;100.00
54850;BME280;47660;51.334;12.396;2022-12-07T04:52:21;99830.34;;;3.81;100.00
54850;BME280;47660;51.334;12.396;2022-12-07T04:54:47;99834.72;;;3.39;100.00
54850;BME280;47660;51.334;12.396;2022-12-07T04:57:12;99829.00;;;3.30;100.00
54850;BME280;47660;51.334;12.396;2022-12-07T04:59:37;99826.66;;;3.44;100.00
54850;BME280;47660;51.334;12.396;2022-12-07T05:02:03;99830.53;;;3.56;100.00
54850;BME280;47660;51.334;12.396;2022-12-07T05:04:28;99830.34;;;3.40;100.00
54850;BME280;47660;51.334;12.396;2022-12-07T05:06:54;99817.41;;;3.56;100.00
54850;BME280;47660;51.334;12.396;2022-12-07T05:09:19;99817.84;;;3.86;100.00
54850;BME280;47660;51.334;12.396;2022-12-07T05:11:45;99812.06;;;4.18;100.00
54850;BME280;47660;51.334;12.396;2022-12-07T05:14:18;99818.53;;;3.50;100.00
54850;BME280;47660;51.334;12.396;2022-12-07T05:16:46;99818.09;;;3.80;100.00
54850;BME280;47660;51.334;12.396;2022-12-07T05:19:12;99821.19;;;3.90;100.00
54850;BME280;47660;51.334;12.396;2022-12-07T05:21:38;99825.81;;;3.85;100.00
54850;BME280;47660;51.334;12.396;2022-12-07T05:24:08;99825.72;;;3.86;100.00
54850;BME280;47660;51.334;12.396;2022-12-07T05:26:34;99821.88;;;3.75;100.00
54850;BME280;47660;51.334;12.396;2022-12-07T05:29:00;99824.44;;;3.55;100.00
54850;BME280;47660;51.334;12.396;2022-12-07T05:31:33;99824.53;;;3.94;100.00
54850;BME280;47660;51.334;12.396;2022-12-07T05:34:01;99822.19;;;3.88;100.00
54850;BME280;47660;51.334;12.396;2022-12-07T05:36:26;99821.78;;;3.76;100.00
54850;BME280;47660;51.334;12.396;2022-12-07T05:38:53;99826.91;;;3.79;100.00
54850;BME280;47660;51.334;12.396;2022-12-07T05:41:19;99820.81;;;3.79;100.00
54850;BME280;47660;51.334;12.396;2022-12-07T05:44:04;99821.66;;;3.79;100.00
54850;BME280;47660;51.334;12.396;2022-12-07T05:46:30;99822.75;;;3.94;100.00
54850;BME280;47660;51.334;12.396;2022-12-07T05:49:00;99822.94;;;3.70;100.00
54850;BME280;47660;51.334;12.396;2022-12-07T05:51:26;99813.66;;;4.01;100.00
54850;BME280;47660;51.334;12.396;2022-12-07T05:53:54;99811.03;;;4.01;100.00
54850;BME280;47660;51.334;12.396;2022-12-07T05:56:19;99817.81;;;4.07;100.00
54850;BME280;47660;51.334;12.396;2022-12-07T05:58:45;99807.13;;;4.10;100.00
54850;BME280;47660;51.334;12.396;2022-12-07T06:01:29;99816.66;;;3.94;100.00
54850;BME280;47660;51.334;12.396;2022-12-07T06:03:55;99809.69;;;3.93;100.00
54850;BME280;47660;51.334;12.396;2022-12-07T06:06:20;99803.56;;;4.11;100.00
54850;BME280;47660;51.334;12.396;2022-12-07T06:08:48;99800.91;;;4.13;100.00
54850;BME280;47660;51.334;12.396;2022-12-07T06:11:14;99805.78;;;4.01;100.00
54850;BME280;47660;51.334;12.396;2022-12-07T06:13:57;99801.59;;;4.16;100.00
54850;BME280;47660;51.334;12.396;2022-12-07T06:16:23;99787.50;;;4.37;100.00
54850;BME280;47660;51.334;12.396;2022-12-07T06:18:48;99794.16;;;4.26;100.00
54850;BME280;47660;51.334;12.396;2022-12-07T06:21:14;99793.09;;;4.30;100.00
54850;BME280;47660;51.334;12.396;2022-12-07T06:23:39;99796.13;;;4.21;100.00
54850;BME280;47660;51.334;12.396;2022-12-07T06:26:05;99808.00;;;4.11;100.00
54850;BME280;47660;51.334;12.396;2022-12-07T06:28:30;99802.47;;;4.17;100.00
54850;BME280;47660;51.334;12.396;2022-12-07T06:31:02;99799.69;;;4.20;100.00
54850;BME280;47660;51.334;12.396;2022-12-07T06:33:28;99807.09;;;4.31;100.00
54850;BME280;47660;51.334;12.396;2022-12-07T06:35:53;99798.97;;;4.16;100.00
54850;BME280;47660;51.334;12.396;2022-12-07T06:38:19;99795.06;;;4.06;100.00
54850;BME280;47660;51.334;12.396;2022-12-07T06:40:44;99795.53;;;4.14;100.00
54850;BME280;47660;51.334;12.396;2022-12-07T06:43:10;99798.63;;;4.05;100.00
54850;BME280;47660;51.334;12.396;2022-12-07T06:45:35;99801.81;;;4.31;100.00
54850;BME280;47660;51.334;12.396;2022-12-07T06:48:01;99798.81;;;4.20;100.00
54850;BME280;47660;51.334;12.396;2022-12-07T06:50:26;99800.38;;;4.05;100.00
54850;BME280;47660;51.334;12.396;2022-12-07T06:52:51;99815.19;;;4.26;100.00
54850;BME280;47660;51.334;12.396;2022-12-07T06:55:17;99809.28;;;4.21;100.00
54850;BME280;47660;51.334;12.396;2022-12-07T06:57:43;99812.84;;;4.20;100.00
54850;BME280;47660;51.334;12.396;2022-12-07T07:00:11;99814.13;;;4.50;100.00
54850;BME280;47660;51.334;12.396;2022-12-07T07:02:37;99817.66;;;4.68;100.00
54850;BME280;47660;51.334;12.396;2022-12-07T07:05:02;99815.19;;;4.65;100.00
54850;BME280;47660;51.334;12.396;2022-12-07T07:07:28;99810.06;;;4.98;100.00
54850;BME280;47660;51.334;12.396;2022-12-07T07:09:54;99817.09;;;4.61;100.00
54850;BME280;47660;51.334;12.396;2022-12-07T07:12:22;99817.16;;;4.59;100.00
54850;BME280;47660;51.334;12.396;2022-12-07T07:14:47;99817.03;;;4.24;100.00
54850;BME280;47660;51.334;12.396;2022-12-07T07:17:14;99816.09;;;4.64;100.00
54850;BME280;47660;51.334;12.396;2022-12-07T07:19:40;99831.03;;;4.44;100.00
54850;BME280;47660;51.334;12.396;2022-12-07T07:22:05;99826.59;;;4.83;100.00
54850;BME280;47660;51.334;12.396;2022-12-07T07:24:31;99827.84;;;4.56;100.00
54850;BME280;47660;51.334;12.396;2022-12-07T07:26:59;99831.38;;;4.74;100.00
54850;BME280;47660;51.334;12.396;2022-12-07T07:29:26;99827.28;;;4.50;100.00
54850;BME280;47660;51.334;12.396;2022-12-07T07:31:52;99833.88;;;4.58;100.00
54850;BME280;47660;51.334;12.396;2022-12-07T07:34:17;99825.53;;;4.87;100.00
54850;BME280;47660;51.334;12.396;2022-12-07T07:36:43;99828.75;;;4.74;100.00
54850;BME280;47660;51.334;12.396;2022-12-07T07:39:11;99836.31;;;4.44;100.00
54850;BME280;47660;51.334;12.396;2022-12-07T07:41:40;99833.47;;;4.49;100.00
54850;BME280;47660;51.334;12.396;2022-12-07T07:44:09;99835.44;;;4.63;100.00
54850;BME280;47660;51.334;12.396;2022-12-07T07:46:34;99835.66;;;4.58;100.00
54850;BME280;47660;51.334;12.396;2022-12-07T07:49:00;99837.22;;;4.43;100.00
54850;BME280;47660;51.334;12.396;2022-12-07T07:51:25;99834.81;;;4.38;100.00
54850;BME280;47660;51.334;12.396;2022-12-07T07:53:52;99827.47;;;4.64;100.00
54850;BME280;47660;51.334;12.396;2022-12-07T07:56:17;99825.19;;;4.75;100.00
54850;BME280;47660;51.334;12.396;2022-12-07T07:58:45;99834.09;;;4.73;100.00
54850;BME280;47660;51.334;12.396;2022-12-07T08:01:13;99832.09;;;4.78;100.00
54850;BME280;47660;51.334;12.396;2022-12-07T08:03:40;99834.25;;;4.70;100.00
54850;BME280;47660;51.334;12.396;2022-12-07T08:06:06;99836.34;;;4.81;100.00
54850;BME280;47660;51.334;12.396;2022-12-07T08:08:31;99835.56;;;4.79;100.00
54850;BME280;47660;51.334;12.396;2022-12-07T08:10:57;99834.66;;;4.80;100.00
54850;BME280;47660;51.334;12.396;2022-12-07T08:13:25;99832.94;;;4.79;100.00
54850;BME280;47660;51.334;12.396;2022-12-07T08:15:51;99835.03;;;4.89;100.00
54850;BME280;47660;51.334;12.396;2022-12-07T08:18:16;99832.50;;;4.88;100.00
54850;BME280;47660;51.334;12.396;2022-12-07T08:20:42;99836.84;;;5.06;100.00
54850;BME280;47660;51.334;12.396;2022-12-07T08:23:08;99839.09;;;4.97;100.00
54850;BME280;47660;51.334;12.396;2022-12-07T08:25:35;99839.56;;;5.05;100.00
54850;BME280;47660;51.334;12.396;2022-12-07T08:28:01;99837.19;;;5.00;100.00
54850;BME280;47660;51.334;12.396;2022-12-07T08:30:27;99840.28;;;5.09;100.00
54850;BME280;47660;51.334;12.396;2022-12-07T08:32:53;99840.84;;;4.79;100.00
54850;BME280;47660;51.334;12.396;2022-12-07T08:35:18;99833.97;;;4.94;100.00
54850;BME280;47660;51.334;12.396;2022-12-07T08:37:46;99826.81;;;5.32;100.00
54850;BME280;47660;51.334;12.396;2022-12-07T08:40:12;99822.41;;;5.68;100.00
54850;BME280;47660;51.334;12.396;2022-12-07T08:42:48;99820.38;;;5.56;100.00
54850;BME280;47660;51.334;12.396;2022-12-07T08:45:15;99833.63;;;5.89;100.00
54850;BME280;47660;51.334;12.396;2022-12-07T08:47:46;99829.13;;;5.56;100.00
54850;BME280;47660;51.334;12.396;2022-12-07T08:50:17;99826.97;;;5.64;100.00
54850;BME280;47660;51.334;12.396;2022-12-07T08:52:42;99828.91;;;5.43;100.00
54850;BME280;47660;51.334;12.396;2022-12-07T08:55:11;99826.13;;;5.46;100.00
54850;BME280;47660;51.334;12.396;2022-12-07T08:57:41;99831.75;;;5.74;100.00
54850;BME280;47660;51.334;12.396;2022-12-07T09:00:08;99838.38;;;5.30;100.00
54850;BME280;47660;51.334;12.396;2022-12-07T09:02:34;99833.09;;;5.47;100.00
54850;BME280;47660;51.334;12.396;2022-12-07T09:05:00;99835.91;;;5.27;100.00
54850;BME280;47660;51.334;12.396;2022-12-07T09:07:29;99833.63;;;5.54;100.00
54850;BME280;47660;51.334;12.396;2022-12-07T09:09:55;99840.94;;;5.31;100.00
54850;BME280;47660;51.334;12.396;2022-12-07T09:12:23;99834.56;;;5.71;100.00
54850;BME280;47660;51.334;12.396;2022-12-07T09:14:48;99838.59;;;5.78;100.00
54850;BME280;47660;51.334;12.396;2022-12-07T09:17:14;99838.47;;;5.97;100.00
54850;BME280;47660;51.334;12.396;2022-12-07T09:19:39;99833.72;;;6.21;100.00
54850;BME280;47660;51.334;12.396;2022-12-07T09:22:06;99849.28;;;5.92;100.00
54850;BME280;47660;51.334;12.396;2022-12-07T09:24:32;99846.44;;;6.13;100.00
54850;BME280;47660;51.334;12.396;2022-12-07T09:26:58;99836.00;;;5.94;100.00
54850;BME280;47660;51.334;12.396;2022-12-07T09:29:24;99847.13;;;5.83;100.00
54850;BME280;47660;51.334;12.396;2022-12-07T09:31:50;99841.22;;;5.78;100.00
54850;BME280;47660;51.334;12.396;2022-12-07T09:34:16;99842.16;;;5.77;100.00
54850;BME280;47660;51.334;12.396;2022-12-07T09:36:41;99837.66;;;5.79;100.00
54850;BME280;47660;51.334;12.396;2022-12-07T09:39:08;99834.72;;;5.68;100.00
54850;BME280;47660;51.334;12.396;2022-12-07T09:41:37;99829.34;;;5.87;100.00
54850;BME280;47660;51.334;12.396;2022-12-07T09:44:12;99828.81;;;5.80;100.00
54850;BME280;47660;51.334;12.396;2022-12-07T09:46:42;99833.41;;;5.76;100.00
54850;BME280;47660;51.334;12.396;2022-12-07T09:49:12;99835.50;;;6.21;100.00
54850;BME280;47660;51.334;12.396;2022-12-07T09:51:39;99824.38;;;6.32;100.00
54850;BME280;47660;51.334;12.396;2022-12-07T09:54:05;99819.50;;;5.90;100.00
54850;BME280;47660;51.334;12.396;2022-12-07T09:56:33;99815.31;;;5.69;100.00
54850;BME280;47660;51.334;12.396;2022-12-07T09:59:00;99823.13;;;5.88;100.00
54850;BME280;47660;51.334;12.396;2022-12-07T10:01:29;99827.25;;;5.76;100.00
54850;BME280;47660;51.334;12.396;2022-12-07T10:04:01;99814.47;;;6.19;100.00
54850;BME280;47660;51.334;12.396;2022-12-07T10:06:30;99815.34;;;6.20;100.00
54850;BME280;47660;51.334;12.396;2022-12-07T10:08:58;99814.41;;;6.21;100.00
54850;BME280;47660;51.334;12.396;2022-12-07T10:11:23;99811.59;;;5.90;100.00
54850;BME280;47660;51.334;12.396;2022-12-07T10:13:52;99806.88;;;6.13;100.00
54850;BME280;47660;51.334;12.396;2022-12-07T10:18:51;99809.94;;;6.05;100.00
54850;BME280;47660;51.334;12.396;2022-12-07T10:21:17;99813.56;;;6.03;100.00
54850;BME280;47660;51.334;12.396;2022-12-07T10:26:34;99808.97;;;6.24;100.00
54850;BME280;47660;51.334;12.396;2022-12-07T10:29:34;99805.22;;;6.44;100.00
54850;BME280;47660;51.334;12.396;2022-12-07T10:32:05;99810.47;;;6.28;100.00
54850;BME280;47660;51.334;12.396;2022-12-07T10:34:37;99810.09;;;6.02;100.00
54850;BME280;47660;51.334;12.396;2022-12-07T10:37:23;99809.47;;;6.31;100.00
54850;BME280;47660;51.334;12.396;2022-12-07T10:39:54;99807.22;;;5.89;100.00
54850;BME280;47660;51.334;12.396;2022-12-07T10:42:25;99797.13;;;5.98;100.00
54850;BME280;47660;51.334;12.396;2022-12-07T10:45:14;99808.22;;;6.04;100.00
54850;BME280;47660;51.334;12.396;2022-12-07T10:50:45;99798.91;;;6.47;100.00
54850;BME280;47660;51.334;12.396;2022-12-07T10:56:26;99796.94;;;6.18;100.00
54850;BME280;47660;51.334;12.396;2022-12-07T11:02:09;99789.38;;;6.44;100.00
54850;BME280;47660;51.334;12.396;2022-12-07T11:15:26;99803.09;;;5.15;100.00
54850;BME280;47660;51.334;12.396;2022-12-07T11:20:42;99787.47;;;5.80;100.00
54850;BME280;47660;51.334;12.396;2022-12-07T11:32:21;99785.53;;;6.02;100.00
54850;BME280;47660;51.334;12.396;2022-12-07T11:37:31;99777.75;;;5.99;100.00
54850;BME280;47660;51.334;12.396;2022-12-07T11:40:04;99776.19;;;5.94;100.00
54850;BME280;47660;51.334;12.396;2022-12-07T11:42:37;99792.63;;;6.00;100.00
54850;BME280;47660;51.334;12.396;2022-12-07T11:45:16;99791.38;;;5.73;100.00
54850;BME280;47660;51.334;12.396;2022-12-07T11:48:04;99777.63;;;6.34;100.00
54850;BME280;47660;51.334;12.396;2022-12-07T11:53:20;99775.75;;;6.36;100.00
54850;BME280;47660;51.334;12.396;2022-12-07T11:56:08;99773.03;;;6.37;100.00
54850;BME280;47660;51.334;12.396;2022-12-07T11:59:08;99782.22;;;6.46;100.00
54850;BME280;47660;51.334;12.396;2022-12-07T12:06:41;99781.81;;;6.38;100.00
54850;BME280;47660;51.334;12.396;2022-12-07T12:09:26;99770.13;;;6.42;100.00
54850;BME280;47660;51.334;12.396;2022-12-07T12:25:48;99759.59;;;6.42;100.00
54850;BME280;47660;51.334;12.396;2022-12-07T12:28:29;99751.97;;;6.68;100.00
54850;BME280;47660;51.334;12.396;2022-12-07T12:31:09;99754.16;;;6.76;100.00
54850;BME280;47660;51.334;12.396;2022-12-07T12:33:43;99750.78;;;6.74;100.00
54850;BME280;47660;51.334;12.396;2022-12-07T12:51:50;99741.44;;;6.20;100.00
54850;BME280;47660;51.334;12.396;2022-12-07T12:54:30;99744.69;;;6.41;100.00
54850;BME280;47660;51.334;12.396;2022-12-07T13:02:39;99739.22;;;6.44;100.00
54850;BME280;47660;51.334;12.396;2022-12-07T13:10:33;99736.22;;;6.50;100.00
54850;BME280;47660;51.334;12.396;2022-12-07T13:15:45;99728.75;;;6.43;100.00
54850;BME280;47660;51.334;12.396;2022-12-07T13:21:02;99725.50;;;6.69;100.00
54850;BME280;47660;51.334;12.396;2022-12-07T13:26:37;99721.28;;;6.81;100.00
54850;BME280;47660;51.334;12.396;2022-12-07T13:39:36;99726.78;;;6.46;100.00
54850;BME280;47660;51.334;12.396;2022-12-07T13:42:22;99728.38;;;6.95;100.00
54850;BME280;47660;51.334;12.396;2022-12-07T13:44:49;99716.16;;;6.32;100.00
54850;BME280;47660;51.334;12.396;2022-12-07T13:49:57;99717.75;;;6.50;100.00
54850;BME280;47660;51.334;12.396;2022-12-07T13:52:25;99707.66;;;6.73;100.00
54850;BME280;47660;51.334;12.396;2022-12-07T13:57:33;99714.25;;;6.50;100.00
54850;BME280;47660;51.334;12.396;2022-12-07T14:00:05;99719.06;;;6.43;100.00
54850;BME280;47660;51.334;12.396;2022-12-07T14:02:33;99723.09;;;6.65;100.00
54850;BME280;47660;51.334;12.396;2022-12-07T14:05:13;99727.00;;;6.58;100.00
54850;BME280;47660;51.334;12.396;2022-12-07T14:08:05;99738.22;;;6.31;100.00
54850;BME280;47660;51.334;12.396;2022-12-07T14:13:03;99715.81;;;6.06;100.00
54850;BME280;47660;51.334;12.396;2022-12-07T14:15:50;99713.78;;;6.43;100.00
54850;BME280;47660;51.334;12.396;2022-12-07T14:18:39;99711.31;;;6.24;100.00
54850;BME280;47660;51.334;12.396;2022-12-07T14:21:16;99719.38;;;6.05;100.00
54850;BME280;47660;51.334;12.396;2022-12-07T14:23:45;99723.66;;;6.07;100.00
54850;BME280;47660;51.334;12.396;2022-12-07T14:26:27;99729.56;;;5.95;100.00
54850;BME280;47660;51.334;12.396;2022-12-07T14:28:52;99729.94;;;6.05;100.00
54850;BME280;47660;51.334;12.396;2022-12-07T14:31:21;99726.63;;;6.01;100.00
54850;BME280;47660;51.334;12.396;2022-12-07T14:33:49;99724.97;;;5.99;100.00
54850;BME280;47660;51.334;12.396;2022-12-07T14:36:14;99728.09;;;5.89;100.00
54850;BME280;47660;51.334;12.396;2022-12-07T14:38:40;99728.06;;;6.07;100.00
54850;BME280;47660;51.334;12.396;2022-12-07T14:41:12;99730.84;;;6.04;100.00
54850;BME280;47660;51.334;12.396;2022-12-07T14:43:58;99725.47;;;5.89;100.00
54850;BME280;47660;51.334;12.396;2022-12-07T14:46:23;99720.41;;;6.02;100.00
54850;BME280;47660;51.334;12.396;2022-12-07T14:48:51;99722.13;;;5.86;100.00
54850;BME280;47660;51.334;12.396;2022-12-07T14:51:17;99729.97;;;5.87;100.00
54850;BME280;47660;51.334;12.396;2022-12-07T14:53:48;99723.06;;;5.85;100.00
54850;BME280;47660;51.334;12.396;2022-12-07T14:56:15;99723.84;;;5.87;100.00
54850;BME280;47660;51.334;12.396;2022-12-07T14:58:42;99726.16;;;5.59;100.00
54850;BME280;47660;51.334;12.396;2022-12-07T15:01:08;99724.59;;;5.73;100.00
54850;BME280;47660;51.334;12.396;2022-12-07T15:03:38;99721.88;;;5.74;100.00
54850;BME280;47660;51.334;12.396;2022-12-07T15:06:05;99718.19;;;5.61;100.00
54850;BME280;47660;51.334;12.396;2022-12-07T15:08:31;99719.84;;;5.46;100.00
54850;BME280;47660;51.334;12.396;2022-12-07T15:10:56;99724.72;;;5.54;100.00
54850;BME280;47660;51.334;12.396;2022-12-07T15:13:22;99724.53;;;5.74;100.00
54850;BME280;47660;51.334;12.396;2022-12-07T15:16:10;99714.13;;;5.71;100.00
54850;BME280;47660;51.334;12.396;2022-12-07T15:18:37;99722.66;;;5.43;100.00
54850;BME280;47660;51.334;12.396;2022-12-07T15:21:03;99719.75;;;5.47;100.00
54850;BME280;47660;51.334;12.396;2022-12-07T15:23:29;99725.66;;;5.53;100.00
54850;BME280;47660;51.334;12.396;2022-12-07T15:25:56;99722.53;;;5.62;100.00
54850;BME280;47660;51.334;12.396;2022-12-07T15:28:22;99735.66;;;5.46;100.00
54850;BME280;47660;51.334;12.396;2022-12-07T15:30:47;99727.25;;;5.55;100.00
54850;BME280;47660;51.334;12.396;2022-12-07T15:33:13;99733.44;;;5.72;100.00